createdAt,value
2017-12-21T00:00:43.632Z,0
2017-12-21T00:01:43.902Z,0
2017-12-21T00:02:43.676Z,0
2017-12-21T00:03:43.715Z,0
2017-12-21T00:04:43.960Z,0
2017-12-21T00:05:43.693Z,0
2017-12-21T00:06:43.964Z,0
2017-12-21T00:07:43.479Z,0
2017-12-21T00:08:43.995Z,0
2017-12-21T00:09:44.012Z,0
2017-12-21T00:10:43.772Z,0
2017-12-21T00:11:44.046Z,0
2017-12-21T00:12:43.793Z,0
2017-12-21T00:13:43.561Z,0
2017-12-21T00:14:44.072Z,0
2017-12-21T00:15:43.847Z,0
2017-12-21T00:16:43.844Z,0
2017-12-21T00:17:43.610Z,0
2017-12-21T00:18:44.174Z,0
2017-12-21T00:19:43.891Z,0
2017-12-21T00:20:43.390Z,0
2017-12-21T00:21:44.164Z,0
2017-12-21T00:22:43.926Z,0
2017-12-21T00:23:44.195Z,0
2017-12-21T00:24:43.950Z,0
2017-12-21T00:25:44.222Z,0
2017-12-21T00:26:43.977Z,0
2017-12-21T00:27:44.003Z,0
2017-12-21T00:28:44.009Z,0
2017-12-21T00:29:44.335Z,0
2017-12-21T00:30:43.792Z,0
2017-12-21T00:31:43.813Z,0
2017-12-21T00:32:44.075Z,0
2017-12-21T00:33:44.378Z,0
2017-12-21T00:34:43.833Z,0
2017-12-21T00:35:43.846Z,0
2017-12-21T00:36:44.109Z,0
2017-12-21T00:37:44.129Z,0
2017-12-21T00:38:43.889Z,0
2017-12-21T00:39:43.900Z,0
2017-12-21T00:40:44.186Z,0
2017-12-21T00:41:43.938Z,0
2017-12-21T00:42:44.199Z,0
2017-12-21T00:43:44.460Z,0
2017-12-21T00:44:43.966Z,0
2017-12-21T00:45:44.479Z,0
2017-12-21T00:46:44.494Z,0
2017-12-21T00:47:44.008Z,0
2017-12-21T00:48:44.325Z,0
2017-12-21T00:49:44.541Z,0
2017-12-21T00:50:44.297Z,0
2017-12-21T00:51:44.053Z,0
2017-12-21T00:52:44.070Z,0
2017-12-21T00:53:44.580Z,0
2017-12-21T00:54:44.353Z,0
2017-12-21T00:55:43.858Z,0
2017-12-21T00:56:44.375Z,0
2017-12-21T00:57:44.399Z,0
2017-12-21T00:58:43.948Z,0
2017-12-21T00:59:44.684Z,0
2017-12-21T01:00:44.176Z,0
2017-12-21T01:01:44.448Z,0
2017-12-21T01:02:44.710Z,0
2017-12-21T01:03:44.268Z,0
2017-12-21T01:04:44.478Z,0
2017-12-21T01:05:44.494Z,0
2017-12-21T01:06:44.507Z,0
2017-12-21T01:07:45.005Z,0
2017-12-21T01:08:44.540Z,0
2017-12-21T01:09:44.312Z,0
2017-12-21T01:10:44.562Z,0
2017-12-21T01:11:44.322Z,0
2017-12-21T01:12:44.333Z,0
2017-12-21T01:13:44.849Z,0
2017-12-21T01:14:44.617Z,0
2017-12-21T01:15:44.631Z,0
2017-12-21T01:16:44.666Z,0
2017-12-21T01:17:44.144Z,0
2017-12-21T01:18:44.713Z,0
2017-12-21T01:19:44.674Z,0
2017-12-21T01:20:44.941Z,0
2017-12-21T01:21:44.703Z,0
2017-12-21T01:22:44.487Z,0
2017-12-21T01:23:44.480Z,0
2017-12-21T01:24:44.747Z,0
2017-12-21T01:25:44.884Z,0
2017-12-21T01:26:45.020Z,0
2017-12-21T01:27:45.039Z,0
2017-12-21T01:28:44.548Z,0
2017-12-21T01:29:44.309Z,0
2017-12-21T01:30:44.834Z,0
2017-12-21T01:31:45.090Z,0
2017-12-21T01:32:44.851Z,0
2017-12-21T01:33:45.166Z,0
2017-12-21T01:34:44.621Z,0
2017-12-21T01:35:44.915Z,0
2017-12-21T01:36:44.900Z,0
2017-12-21T01:37:45.186Z,0
2017-12-21T01:38:44.423Z,0
2017-12-21T01:39:44.946Z,0
2017-12-21T01:40:44.809Z,0
2017-12-21T01:41:45.217Z,0
2017-12-21T01:42:45.260Z,0
2017-12-21T01:43:44.742Z,0
2017-12-21T01:44:45.010Z,0
2017-12-21T01:45:45.275Z,0
2017-12-21T01:46:45.051Z,0
2017-12-21T01:47:45.044Z,0
2017-12-21T01:48:45.157Z,0
2017-12-21T01:49:44.825Z,0
2017-12-21T01:50:45.100Z,0
2017-12-21T01:51:45.354Z,0
2017-12-21T01:52:45.114Z,0
2017-12-21T01:53:45.125Z,0
2017-12-21T01:54:45.141Z,0
2017-12-21T01:55:45.149Z,0
2017-12-21T01:56:44.912Z,0
2017-12-21T01:57:45.199Z,0
2017-12-21T01:58:45.452Z,0
2017-12-21T01:59:44.929Z,0
2017-12-21T02:00:44.704Z,0
2017-12-21T02:01:44.984Z,0
2017-12-21T02:02:44.991Z,0
2017-12-21T02:03:45.560Z,0
2017-12-21T02:04:45.018Z,0
2017-12-21T02:05:45.545Z,0
2017-12-21T02:06:45.054Z,0
2017-12-21T02:07:45.309Z,0
2017-12-21T02:08:45.576Z,0
2017-12-21T02:09:45.347Z,0
2017-12-21T02:10:45.093Z,0
2017-12-21T02:11:45.106Z,0
2017-12-21T02:12:45.133Z,0
2017-12-21T02:13:45.405Z,0
2017-12-21T02:14:45.147Z,0
2017-12-21T02:15:45.161Z,0
2017-12-21T02:16:45.429Z,0
2017-12-21T02:17:45.693Z,0
2017-12-21T02:18:45.812Z,0
2017-12-21T02:19:45.720Z,0
2017-12-21T02:20:45.234Z,0
2017-12-21T02:21:45.489Z,0
2017-12-21T02:22:45.253Z,0
2017-12-21T02:23:45.519Z,0
2017-12-21T02:24:45.279Z,0
2017-12-21T02:25:45.544Z,0
2017-12-21T02:26:45.805Z,0
2017-12-21T02:27:45.576Z,0
2017-12-21T02:28:45.076Z,0
2017-12-21T02:29:45.343Z,0
2017-12-21T02:30:45.614Z,0
2017-12-21T02:31:45.897Z,0
2017-12-21T02:32:45.389Z,0
2017-12-21T02:33:45.699Z,0
2017-12-21T02:34:45.922Z,0
2017-12-21T02:35:45.180Z,0
2017-12-21T02:36:45.942Z,0
2017-12-21T02:37:45.708Z,0
2017-12-21T02:38:45.968Z,0
2017-12-21T02:39:45.739Z,0
2017-12-21T02:40:45.761Z,0
2017-12-21T02:41:45.499Z,0
2017-12-21T02:42:45.779Z,0
2017-12-21T02:43:46.053Z,0
2017-12-21T02:44:45.538Z,0
2017-12-21T02:45:45.830Z,0
2017-12-21T02:46:45.570Z,0
2017-12-21T02:47:45.829Z,0
2017-12-21T02:48:45.898Z,0
2017-12-21T02:49:45.859Z,0
2017-12-21T02:50:45.896Z,0
2017-12-21T02:51:45.905Z,0
2017-12-21T02:52:46.153Z,0
2017-12-21T02:53:45.910Z,0
2017-12-21T02:54:46.179Z,0
2017-12-21T02:55:45.944Z,0
2017-12-21T02:56:45.712Z,0
2017-12-21T02:57:45.705Z,0
2017-12-21T02:58:45.968Z,0
2017-12-21T02:59:45.993Z,0
2017-12-21T03:00:45.767Z,0
2017-12-21T03:01:46.030Z,0
2017-12-21T03:02:45.779Z,0
2017-12-21T03:03:45.587Z,0
2017-12-21T03:04:45.804Z,0
2017-12-21T03:05:45.817Z,0
2017-12-21T03:06:45.827Z,0
2017-12-21T03:07:45.840Z,0
2017-12-21T03:08:46.101Z,0
2017-12-21T03:09:46.140Z,0
2017-12-21T03:10:46.133Z,0
2017-12-21T03:11:46.144Z,0
2017-12-21T03:12:45.903Z,0
2017-12-21T03:13:46.172Z,0
2017-12-21T03:14:46.436Z,0
2017-12-21T03:15:46.190Z,0
2017-12-21T03:16:46.201Z,0
2017-12-21T03:17:46.219Z,0
2017-12-21T03:18:46.277Z,0
2017-12-21T03:19:46.487Z,0
2017-12-21T03:20:46.001Z,0
2017-12-21T03:21:46.285Z,0
2017-12-21T03:22:46.285Z,0
2017-12-21T03:23:46.314Z,0
2017-12-21T03:24:46.600Z,0
2017-12-21T03:25:46.328Z,0
2017-12-21T03:26:46.344Z,0
2017-12-21T03:27:46.356Z,0
2017-12-21T03:28:45.876Z,0
2017-12-21T03:29:46.630Z,0
2017-12-21T03:30:46.181Z,0
2017-12-21T03:31:46.413Z,0
2017-12-21T03:32:46.426Z,0
2017-12-21T03:33:45.998Z,0
2017-12-21T03:34:45.937Z,0
2017-12-21T03:35:46.462Z,0
2017-12-21T03:36:46.472Z,0
2017-12-21T03:37:46.229Z,0
2017-12-21T03:38:46.746Z,0
2017-12-21T03:39:46.524Z,0
2017-12-21T03:40:46.778Z,0
2017-12-21T03:41:46.532Z,0
2017-12-21T03:42:46.877Z,0
2017-12-21T03:43:46.562Z,0
2017-12-21T03:44:46.835Z,0
2017-12-21T03:45:46.842Z,0
2017-12-21T03:46:46.350Z,0
2017-12-21T03:47:46.856Z,0
2017-12-21T03:48:46.663Z,0
2017-12-21T03:49:46.630Z,0
2017-12-21T03:50:46.914Z,0
2017-12-21T03:51:46.960Z,0
2017-12-21T03:52:46.932Z,0
2017-12-21T03:53:46.694Z,0
2017-12-21T03:54:46.710Z,0
2017-12-21T03:55:46.465Z,0
2017-12-21T03:56:47.005Z,0
2017-12-21T03:57:47.002Z,0
2017-12-21T03:58:46.764Z,0
2017-12-21T03:59:46.773Z,0
2017-12-21T04:00:46.559Z,0
2017-12-21T04:01:46.803Z,0
2017-12-21T04:02:47.065Z,0
2017-12-21T04:03:47.114Z,0
2017-12-21T04:04:46.575Z,0
2017-12-21T04:05:46.841Z,0
2017-12-21T04:06:46.868Z,0
2017-12-21T04:07:46.876Z,0
2017-12-21T04:08:46.638Z,0
2017-12-21T04:09:46.934Z,0
2017-12-21T04:10:46.661Z,0
2017-12-21T04:11:46.680Z,0
2017-12-21T04:12:46.937Z,0
2017-12-21T04:13:46.960Z,0
2017-12-21T04:14:46.966Z,0
2017-12-21T04:15:46.753Z,0
2017-12-21T04:16:46.738Z,0
2017-12-21T04:17:46.794Z,0
2017-12-21T04:18:47.068Z,0
2017-12-21T04:19:46.275Z,0
2017-12-21T04:20:46.790Z,0
2017-12-21T04:21:47.309Z,0
2017-12-21T04:22:47.332Z,0
2017-12-21T04:23:46.831Z,0
2017-12-21T04:24:46.587Z,0
2017-12-21T04:25:47.371Z,0
2017-12-21T04:26:47.119Z,0
2017-12-21T04:27:47.392Z,0
2017-12-21T04:28:46.896Z,0
2017-12-21T04:29:46.907Z,0
2017-12-21T04:30:47.181Z,0
2017-12-21T04:31:47.447Z,0
2017-12-21T04:32:47.454Z,0
2017-12-21T04:33:47.270Z,0
2017-12-21T04:34:47.231Z,0
2017-12-21T04:35:46.734Z,0
2017-12-21T04:36:47.250Z,0
2017-12-21T04:37:47.014Z,0
2017-12-21T04:38:47.531Z,0
2017-12-21T04:39:47.556Z,0
2017-12-21T04:40:47.310Z,0
2017-12-21T04:41:47.072Z,0
2017-12-21T04:42:47.588Z,0
2017-12-21T04:43:46.848Z,0
2017-12-21T04:44:47.109Z,0
2017-12-21T04:45:47.373Z,0
2017-12-21T04:46:46.893Z,0
2017-12-21T04:47:47.419Z,0
2017-12-21T04:48:47.525Z,0
2017-12-21T04:49:47.427Z,0
2017-12-21T04:50:47.688Z,0
2017-12-21T04:51:47.703Z,0
2017-12-21T04:52:47.714Z,0
2017-12-21T04:53:47.728Z,0
2017-12-21T04:54:46.984Z,0
2017-12-21T04:55:47.248Z,0
2017-12-21T04:56:47.008Z,0
2017-12-21T04:57:47.274Z,0
2017-12-21T04:58:47.049Z,0
2017-12-21T04:59:47.555Z,0
2017-12-21T05:00:47.571Z,0
2017-12-21T05:01:47.829Z,0
2017-12-21T05:02:47.602Z,0
2017-12-21T05:03:47.407Z,0
2017-12-21T05:04:47.367Z,0
2017-12-21T05:05:47.889Z,0
2017-12-21T05:06:47.908Z,0
2017-12-21T05:07:47.660Z,0
2017-12-21T05:08:47.939Z,0
2017-12-21T05:09:47.682Z,0
2017-12-21T05:10:47.944Z,0
2017-12-21T05:11:47.962Z,0
2017-12-21T05:12:47.719Z,0
2017-12-21T05:13:47.989Z,0
2017-12-21T05:14:47.491Z,0
2017-12-21T05:15:48.011Z,0
2017-12-21T05:16:48.034Z,0
2017-12-21T05:17:48.041Z,0
2017-12-21T05:18:47.852Z,0
2017-12-21T05:19:47.816Z,0
2017-12-21T05:20:47.832Z,0
2017-12-21T05:21:48.090Z,0
2017-12-21T05:22:47.346Z,0
2017-12-21T05:23:47.613Z,0
2017-12-21T05:24:47.638Z,0
2017-12-21T05:25:47.940Z,0
2017-12-21T05:26:47.906Z,0
2017-12-21T05:27:47.668Z,0
2017-12-21T05:28:48.066Z,0
2017-12-21T05:29:48.207Z,0
2017-12-21T05:30:47.967Z,0
2017-12-21T05:31:47.971Z,0
2017-12-21T05:32:47.990Z,0
2017-12-21T05:33:48.053Z,0
2017-12-21T05:34:47.252Z,0
2017-12-21T05:35:48.280Z,0
2017-12-21T05:36:48.294Z,0
2017-12-21T05:37:47.805Z,0
2017-12-21T05:38:48.067Z,0
2017-12-21T05:39:48.083Z,0
2017-12-21T05:40:48.095Z,0
2017-12-21T05:41:47.857Z,0
2017-12-21T05:42:47.875Z,0
2017-12-21T05:43:48.165Z,0
2017-12-21T05:44:47.894Z,0
2017-12-21T05:45:48.419Z,0
2017-12-21T05:46:47.667Z,0
2017-12-21T05:47:47.678Z,0
2017-12-21T05:48:48.250Z,0
2017-12-21T05:49:47.960Z,0
2017-12-21T05:50:48.232Z,0
2017-12-21T05:51:47.981Z,0
2017-12-21T05:52:48.252Z,0
2017-12-21T05:53:48.268Z,0
2017-12-21T05:54:48.280Z,0
2017-12-21T05:55:48.041Z,0
2017-12-21T05:56:48.053Z,0
2017-12-21T05:57:48.362Z,0
2017-12-21T05:58:48.344Z,0
2017-12-21T05:59:48.198Z,0
2017-12-21T06:00:48.347Z,0
2017-12-21T06:01:48.168Z,0
2017-12-21T06:02:48.381Z,0
2017-12-21T06:03:48.394Z,0
2017-12-21T06:04:48.723Z,0
2017-12-21T06:05:48.421Z,0
2017-12-21T06:06:48.452Z,0
2017-12-21T06:07:48.698Z,0
2017-12-21T06:08:48.459Z,0
2017-12-21T06:09:48.721Z,0
2017-12-21T06:10:48.487Z,0
2017-12-21T06:11:48.757Z,0
2017-12-21T06:12:48.259Z,0
2017-12-21T06:13:48.280Z,0
2017-12-21T06:14:48.550Z,0
2017-12-21T06:15:48.051Z,0
2017-12-21T06:16:48.567Z,0
2017-12-21T06:17:48.127Z,0
2017-12-21T06:18:48.848Z,0
2017-12-21T06:19:48.365Z,0
2017-12-21T06:20:48.518Z,0
2017-12-21T06:21:48.643Z,0
2017-12-21T06:22:48.400Z,0
2017-12-21T06:23:48.915Z,0
2017-12-21T06:24:48.449Z,0
2017-12-21T06:25:48.692Z,0
2017-12-21T06:26:49.007Z,0
2017-12-21T06:27:48.715Z,0
2017-12-21T06:28:48.474Z,0
2017-12-21T06:29:48.483Z,0
2017-12-21T06:30:48.758Z,0
2017-12-21T06:31:48.769Z,0
2017-12-21T06:32:48.772Z,0
2017-12-21T06:33:49.035Z,0
2017-12-21T06:34:48.560Z,0
2017-12-21T06:35:48.874Z,0
2017-12-21T06:36:48.822Z,0
2017-12-21T06:37:49.096Z,0
2017-12-21T06:38:49.114Z,0
2017-12-21T06:39:48.868Z,0
2017-12-21T06:40:49.147Z,0
2017-12-21T06:41:48.902Z,0
2017-12-21T06:42:48.663Z,0
2017-12-21T06:43:48.927Z,0
2017-12-21T06:44:48.689Z,0
2017-12-21T06:45:48.946Z,0
2017-12-21T06:46:49.222Z,0
2017-12-21T06:47:48.738Z,0
2017-12-21T06:48:48.485Z,0
2017-12-21T06:49:49.257Z,0
2017-12-21T06:50:48.813Z,0
2017-12-21T06:51:49.034Z,0
2017-12-21T06:52:48.795Z,0
2017-12-21T06:53:49.092Z,0
2017-12-21T06:54:49.085Z,0
2017-12-21T06:55:49.080Z,0
2017-12-21T06:56:49.094Z,0
2017-12-21T06:57:49.362Z,0
2017-12-21T06:58:49.122Z,0
2017-12-21T06:59:49.138Z,0
2017-12-21T07:00:48.895Z,0
2017-12-21T07:01:49.164Z,0
2017-12-21T07:02:48.926Z,0
2017-12-21T07:03:49.458Z,0
2017-12-21T07:04:48.946Z,0
2017-12-21T07:05:49.275Z,0
2017-12-21T07:06:48.457Z,0
2017-12-21T07:07:49.496Z,0
2017-12-21T07:08:49.256Z,0
2017-12-21T07:09:49.516Z,0
2017-12-21T07:10:49.565Z,5
2017-12-21T07:11:49.301Z,5
2017-12-21T07:12:49.315Z,5
2017-12-21T07:13:49.328Z,5
2017-12-21T07:14:49.084Z,5
2017-12-21T07:15:49.367Z,5
2017-12-21T07:16:49.355Z,5
2017-12-21T07:17:49.626Z,10
2017-12-21T07:18:49.130Z,10
2017-12-21T07:19:49.403Z,10
2017-12-21T07:20:49.470Z,10
2017-12-21T07:21:49.423Z,10
2017-12-21T07:22:49.439Z,10
2017-12-21T07:23:49.201Z,10
2017-12-21T07:24:49.205Z,10
2017-12-21T07:25:49.240Z,10
2017-12-21T07:26:49.486Z,15
2017-12-21T07:27:48.995Z,15
2017-12-21T07:28:49.775Z,15
2017-12-21T07:29:49.538Z,15
2017-12-21T07:30:49.793Z,15
2017-12-21T07:31:49.805Z,15
2017-12-21T07:32:48.807Z,15
2017-12-21T07:33:49.075Z,15
2017-12-21T07:34:49.872Z,15
2017-12-21T07:35:49.150Z,15
2017-12-21T07:36:49.373Z,15
2017-12-21T07:37:49.881Z,15
2017-12-21T07:38:49.644Z,15
2017-12-21T07:39:49.604Z,15
2017-12-21T07:40:49.670Z,15
2017-12-21T07:41:49.686Z,15
2017-12-21T07:42:49.452Z,15
2017-12-21T07:43:49.704Z,20
2017-12-21T07:44:49.992Z,20
2017-12-21T07:45:49.485Z,20
2017-12-21T07:46:50.018Z,20
2017-12-21T07:47:49.514Z,20
2017-12-21T07:48:49.775Z,20
2017-12-21T07:49:49.539Z,20
2017-12-21T07:50:49.601Z,20
2017-12-21T07:51:50.069Z,25
2017-12-21T07:52:50.084Z,25
2017-12-21T07:53:49.871Z,25
2017-12-21T07:54:50.113Z,25
2017-12-21T07:55:49.859Z,30
2017-12-21T07:56:50.138Z,30
2017-12-21T07:57:50.145Z,30
2017-12-21T07:58:49.906Z,30
2017-12-21T07:59:50.177Z,30
2017-12-21T08:00:49.692Z,30
2017-12-21T08:01:49.939Z,35
2017-12-21T08:02:50.002Z,35
2017-12-21T08:03:50.231Z,40
2017-12-21T08:04:49.736Z,40
2017-12-21T08:05:49.542Z,45
2017-12-21T08:06:50.324Z,50
2017-12-21T08:07:50.034Z,50
2017-12-21T08:08:50.289Z,55
2017-12-21T08:09:50.299Z,55
2017-12-21T08:10:50.058Z,55
2017-12-21T08:11:50.336Z,55
2017-12-21T08:12:50.092Z,55
2017-12-21T08:13:50.107Z,55
2017-12-21T08:14:50.119Z,50
2017-12-21T08:15:49.973Z,50
2017-12-21T08:16:50.135Z,45
2017-12-21T08:17:50.407Z,40
2017-12-21T08:18:50.167Z,40
2017-12-21T08:19:50.182Z,40
2017-12-21T08:20:50.393Z,35
2017-12-21T08:21:50.213Z,35
2017-12-21T08:22:50.222Z,35
2017-12-21T08:23:50.228Z,35
2017-12-21T08:24:50.508Z,40
2017-12-21T08:25:50.512Z,40
2017-12-21T08:26:50.269Z,45
2017-12-21T08:27:50.292Z,55
2017-12-21T08:28:50.044Z,60
2017-12-21T08:29:50.310Z,70
2017-12-21T08:30:50.323Z,75
2017-12-21T08:31:50.595Z,75
2017-12-21T08:32:50.352Z,75
2017-12-21T08:33:50.618Z,75
2017-12-21T08:34:50.375Z,75
2017-12-21T08:35:50.199Z,75
2017-12-21T08:36:50.715Z,80
2017-12-21T08:37:50.163Z,80
2017-12-21T08:38:50.425Z,85
2017-12-21T08:39:50.196Z,85
2017-12-21T08:40:50.511Z,90
2017-12-21T08:41:50.473Z,95
2017-12-21T08:42:50.242Z,95
2017-12-21T08:43:50.242Z,95
2017-12-21T08:44:50.760Z,100
2017-12-21T08:45:50.275Z,105
2017-12-21T08:46:50.543Z,105
2017-12-21T08:47:50.800Z,105
2017-12-21T08:48:50.311Z,110
2017-12-21T08:49:50.591Z,125
2017-12-21T08:50:50.896Z,135
2017-12-21T08:51:50.604Z,150
2017-12-21T08:52:50.367Z,165
2017-12-21T08:53:50.629Z,180
2017-12-21T08:54:50.701Z,190
2017-12-21T08:55:50.411Z,200
2017-12-21T08:56:50.756Z,205
2017-12-21T08:57:50.704Z,215
2017-12-21T08:58:50.451Z,220
2017-12-21T08:59:50.712Z,225
2017-12-21T09:00:50.228Z,220
2017-12-21T09:01:50.748Z,220
2017-12-21T09:02:50.759Z,220
2017-12-21T09:03:51.020Z,225
2017-12-21T09:04:50.792Z,225
2017-12-21T09:05:50.848Z,220
2017-12-21T09:06:50.390Z,215
2017-12-21T09:07:50.847Z,205
2017-12-21T09:08:50.344Z,195
2017-12-21T09:09:50.614Z,185
2017-12-21T09:10:50.881Z,180
2017-12-21T09:11:50.893Z,160
2017-12-21T09:12:50.916Z,150
2017-12-21T09:13:50.919Z,135
2017-12-21T09:14:50.692Z,130
2017-12-21T09:15:51.203Z,120
2017-12-21T09:16:50.964Z,120
2017-12-21T09:17:50.979Z,125
2017-12-21T09:18:50.756Z,135
2017-12-21T09:19:51.261Z,135
2017-12-21T09:20:51.076Z,130
2017-12-21T09:21:51.041Z,130
2017-12-21T09:22:51.061Z,130
2017-12-21T09:23:51.071Z,130
2017-12-21T09:24:51.344Z,130
2017-12-21T09:25:51.105Z,130
2017-12-21T09:26:50.611Z,130
2017-12-21T09:27:50.883Z,135
2017-12-21T09:28:50.894Z,135
2017-12-21T09:29:51.168Z,135
2017-12-21T09:30:50.937Z,135
2017-12-21T09:31:51.311Z,130
2017-12-21T09:32:51.207Z,125
2017-12-21T09:33:50.971Z,125
2017-12-21T09:34:50.730Z,120
2017-12-21T09:35:51.300Z,115
2017-12-21T09:36:51.270Z,110
2017-12-21T09:37:51.030Z,105
2017-12-21T09:38:51.312Z,100
2017-12-21T09:39:51.056Z,100
2017-12-21T09:40:51.584Z,95
2017-12-21T09:41:51.088Z,95
2017-12-21T09:42:51.361Z,95
2017-12-21T09:43:51.374Z,90
2017-12-21T09:44:51.136Z,90
2017-12-21T09:45:51.654Z,90
2017-12-21T09:46:51.433Z,90
2017-12-21T09:47:51.179Z,90
2017-12-21T09:48:51.697Z,90
2017-12-21T09:49:51.205Z,90
2017-12-21T09:50:51.222Z,85
2017-12-21T09:51:51.755Z,85
2017-12-21T09:52:51.507Z,85
2017-12-21T09:53:51.270Z,85
2017-12-21T09:54:51.791Z,90
2017-12-21T09:55:51.806Z,90
2017-12-21T09:56:51.311Z,95
2017-12-21T09:57:51.074Z,95
2017-12-21T09:58:51.337Z,100
2017-12-21T09:59:51.608Z,100
2017-12-21T10:00:51.375Z,100
2017-12-21T10:01:51.677Z,100
2017-12-21T10:02:51.659Z,100
2017-12-21T10:03:51.679Z,105
2017-12-21T10:04:51.717Z,95
2017-12-21T10:05:51.446Z,95
2017-12-21T10:06:51.978Z,90
2017-12-21T10:07:51.539Z,85
2017-12-21T10:08:51.536Z,80
2017-12-21T10:09:52.010Z,80
2017-12-21T10:10:51.780Z,80
2017-12-21T10:11:51.905Z,80
2017-12-21T10:12:52.061Z,80
2017-12-21T10:13:51.561Z,80
2017-12-21T10:14:52.089Z,80
2017-12-21T10:15:51.864Z,80
2017-12-21T10:16:51.615Z,80
2017-12-21T10:17:52.133Z,80
2017-12-21T10:18:52.152Z,80
2017-12-21T10:19:51.651Z,80
2017-12-21T10:20:51.923Z,80
2017-12-21T10:21:51.970Z,75
2017-12-21T10:22:51.705Z,75
2017-12-21T10:23:51.962Z,75
2017-12-21T10:24:51.988Z,75
2017-12-21T10:25:51.738Z,80
2017-12-21T10:26:52.262Z,80
2017-12-21T10:27:52.023Z,85
2017-12-21T10:28:52.103Z,85
2017-12-21T10:29:51.799Z,90
2017-12-21T10:30:52.330Z,85
2017-12-21T10:31:52.344Z,85
2017-12-21T10:32:52.357Z,90
2017-12-21T10:33:52.131Z,90
2017-12-21T10:34:51.875Z,95
2017-12-21T10:35:51.896Z,95
2017-12-21T10:36:51.910Z,100
2017-12-21T10:37:51.928Z,105
2017-12-21T10:38:52.438Z,110
2017-12-21T10:39:51.947Z,110
2017-12-21T10:40:51.965Z,115
2017-12-21T10:41:51.728Z,125
2017-12-21T10:42:52.240Z,130
2017-12-21T10:43:52.309Z,145
2017-12-21T10:44:52.275Z,160
2017-12-21T10:45:52.554Z,180
2017-12-21T10:46:52.566Z,195
2017-12-21T10:47:52.073Z,200
2017-12-21T10:48:52.582Z,200
2017-12-21T10:49:51.839Z,190
2017-12-21T10:50:52.124Z,185
2017-12-21T10:51:52.375Z,180
2017-12-21T10:52:52.137Z,165
2017-12-21T10:53:52.408Z,160
2017-12-21T10:54:52.170Z,155
2017-12-21T10:55:52.431Z,155
2017-12-21T10:56:52.452Z,155
2017-12-21T10:57:52.726Z,155
2017-12-21T10:58:52.535Z,160
2017-12-21T10:59:52.241Z,165
2017-12-21T11:00:52.755Z,175
2017-12-21T11:01:52.521Z,180
2017-12-21T11:02:52.304Z,175
2017-12-21T11:03:52.814Z,180
2017-12-21T11:04:52.321Z,190
2017-12-21T11:05:52.851Z,205
2017-12-21T11:06:52.633Z,225
2017-12-21T11:07:52.633Z,245
2017-12-21T11:08:52.637Z,250
2017-12-21T11:09:52.440Z,230
2017-12-21T11:10:52.674Z,210
2017-12-21T11:11:52.428Z,205
2017-12-21T11:12:52.446Z,205
2017-12-21T11:13:52.460Z,210
2017-12-21T11:14:52.782Z,215
2017-12-21T11:15:52.998Z,210
2017-12-21T11:16:53.087Z,200
2017-12-21T11:17:52.784Z,190
2017-12-21T11:18:52.294Z,180
2017-12-21T11:19:52.817Z,170
2017-12-21T11:20:52.832Z,165
2017-12-21T11:21:53.102Z,165
2017-12-21T11:22:52.606Z,160
2017-12-21T11:23:53.125Z,155
2017-12-21T11:24:52.650Z,155
2017-12-21T11:25:53.172Z,155
2017-12-21T11:26:53.171Z,160
2017-12-21T11:27:53.186Z,175
2017-12-21T11:28:52.691Z,185
2017-12-21T11:29:52.523Z,195
2017-12-21T11:30:52.984Z,205
2017-12-21T11:31:53.248Z,210
2017-12-21T11:32:52.753Z,215
2017-12-21T11:33:53.024Z,220
2017-12-21T11:34:53.296Z,220
2017-12-21T11:35:53.052Z,225
2017-12-21T11:36:53.063Z,220
2017-12-21T11:37:53.326Z,220
2017-12-21T11:38:52.843Z,225
2017-12-21T11:39:53.116Z,235
2017-12-21T11:40:52.887Z,255
2017-12-21T11:41:53.409Z,255
2017-12-21T11:42:52.917Z,250
2017-12-21T11:43:53.200Z,255
2017-12-21T11:44:53.366Z,260
2017-12-21T11:45:52.961Z,265
2017-12-21T11:46:53.474Z,270
2017-12-21T11:47:53.234Z,285
2017-12-21T11:48:53.263Z,295
2017-12-21T11:49:53.291Z,275
2017-12-21T11:50:53.054Z,265
2017-12-21T11:51:53.323Z,240
2017-12-21T11:52:53.330Z,205
2017-12-21T11:53:53.631Z,180
2017-12-21T11:54:53.617Z,155
2017-12-21T11:55:53.640Z,135
2017-12-21T11:56:53.656Z,120
2017-12-21T11:57:53.663Z,105
2017-12-21T11:58:53.682Z,100
2017-12-21T11:59:53.497Z,100
2017-12-21T12:00:53.729Z,100
2017-12-21T12:01:53.482Z,100
2017-12-21T12:02:53.254Z,95
2017-12-21T12:03:53.520Z,100
2017-12-21T12:04:53.781Z,100
2017-12-21T12:05:53.293Z,105
2017-12-21T12:06:53.564Z,110
2017-12-21T12:07:53.320Z,110
2017-12-21T12:08:53.589Z,110
2017-12-21T12:09:53.600Z,110
2017-12-21T12:10:53.876Z,120
2017-12-21T12:11:53.892Z,115
2017-12-21T12:12:53.151Z,115
2017-12-21T12:13:53.420Z,115
2017-12-21T12:14:53.985Z,120
2017-12-21T12:15:53.979Z,120
2017-12-21T12:16:53.718Z,120
2017-12-21T12:17:53.742Z,115
2017-12-21T12:18:53.490Z,115
2017-12-21T12:19:54.019Z,115
2017-12-21T12:20:54.042Z,120
2017-12-21T12:21:53.540Z,120
2017-12-21T12:22:53.812Z,120
2017-12-21T12:23:53.823Z,125
2017-12-21T12:24:53.843Z,120
2017-12-21T12:25:54.157Z,115
2017-12-21T12:26:53.875Z,110
2017-12-21T12:27:53.902Z,105
2017-12-21T12:28:53.649Z,105
2017-12-21T12:29:54.224Z,100
2017-12-21T12:30:54.188Z,90
2017-12-21T12:31:53.443Z,85
2017-12-21T12:32:53.968Z,75
2017-12-21T12:33:53.738Z,70
2017-12-21T12:34:54.257Z,70
2017-12-21T12:35:54.027Z,75
2017-12-21T12:36:54.280Z,75
2017-12-21T12:37:54.047Z,80
2017-12-21T12:38:54.316Z,90
2017-12-21T12:39:54.178Z,90
2017-12-21T12:40:54.057Z,95
2017-12-21T12:41:54.323Z,100
2017-12-21T12:42:54.373Z,100
2017-12-21T12:43:54.138Z,90
2017-12-21T12:44:54.214Z,85
2017-12-21T12:45:53.663Z,75
2017-12-21T12:46:54.181Z,75
2017-12-21T12:47:54.203Z,75
2017-12-21T12:48:53.964Z,75
2017-12-21T12:49:54.540Z,70
2017-12-21T12:50:54.257Z,65
2017-12-21T12:51:54.010Z,60
2017-12-21T12:52:54.306Z,55
2017-12-21T12:53:54.301Z,55
2017-12-21T12:54:54.309Z,50
2017-12-21T12:55:54.085Z,45
2017-12-21T12:56:53.832Z,45
2017-12-21T12:57:54.109Z,45
2017-12-21T12:58:54.368Z,45
2017-12-21T12:59:54.183Z,40
2017-12-21T13:00:54.661Z,40
2017-12-21T13:01:54.420Z,40
2017-12-21T13:02:54.235Z,40
2017-12-21T13:03:54.464Z,35
2017-12-21T13:04:54.315Z,35
2017-12-21T13:05:54.482Z,40
2017-12-21T13:06:54.504Z,35
2017-12-21T13:07:54.772Z,40
2017-12-21T13:08:54.535Z,40
2017-12-21T13:09:54.798Z,40
2017-12-21T13:10:54.561Z,40
2017-12-21T13:11:54.576Z,40
2017-12-21T13:12:54.841Z,35
2017-12-21T13:13:54.617Z,35
2017-12-21T13:14:54.409Z,40
2017-12-21T13:15:54.402Z,40
2017-12-21T13:16:54.396Z,40
2017-12-21T13:17:54.681Z,40
2017-12-21T13:18:54.175Z,40
2017-12-21T13:19:54.695Z,40
2017-12-21T13:20:54.966Z,40
2017-12-21T13:21:54.475Z,40
2017-12-21T13:22:54.487Z,40
2017-12-21T13:23:55.034Z,40
2017-12-21T13:24:54.841Z,40
2017-12-21T13:25:54.299Z,40
2017-12-21T13:26:54.808Z,40
2017-12-21T13:27:54.572Z,40
2017-12-21T13:28:55.102Z,40
2017-12-21T13:29:55.154Z,40
2017-12-21T13:30:54.867Z,40
2017-12-21T13:31:54.888Z,40
2017-12-21T13:32:54.642Z,40
2017-12-21T13:33:54.660Z,40
2017-12-21T13:34:54.925Z,40
2017-12-21T13:35:54.945Z,40
2017-12-21T13:36:54.960Z,40
2017-12-21T13:37:54.992Z,40
2017-12-21T13:38:54.988Z,40
2017-12-21T13:39:55.276Z,40
2017-12-21T13:40:55.024Z,40
2017-12-21T13:41:55.051Z,40
2017-12-21T13:42:55.310Z,35
2017-12-21T13:43:55.085Z,40
2017-12-21T13:44:55.432Z,35
2017-12-21T13:45:55.093Z,35
2017-12-21T13:46:55.121Z,35
2017-12-21T13:47:54.873Z,30
2017-12-21T13:48:55.148Z,30
2017-12-21T13:49:55.155Z,30
2017-12-21T13:50:55.422Z,30
2017-12-21T13:51:55.185Z,30
2017-12-21T13:52:55.206Z,25
2017-12-21T13:53:55.220Z,25
2017-12-21T13:54:55.494Z,20
2017-12-21T13:55:55.248Z,20
2017-12-21T13:56:55.258Z,20
2017-12-21T13:57:54.770Z,20
2017-12-21T13:58:55.033Z,20
2017-12-21T13:59:55.641Z,20
2017-12-21T14:00:55.074Z,20
2017-12-21T14:01:55.340Z,20
2017-12-21T14:02:55.596Z,15
2017-12-21T14:03:54.849Z,15
2017-12-21T14:04:55.219Z,15
2017-12-21T14:05:55.129Z,15
2017-12-21T14:06:55.402Z,15
2017-12-21T14:07:55.668Z,15
2017-12-21T14:08:55.423Z,15
2017-12-21T14:09:55.699Z,15
2017-12-21T14:10:55.462Z,15
2017-12-21T14:11:55.468Z,15
2017-12-21T14:12:54.977Z,15
2017-12-21T14:13:55.751Z,15
2017-12-21T14:14:55.823Z,15
2017-12-21T14:15:55.275Z,10
2017-12-21T14:16:55.329Z,15
2017-12-21T14:17:55.566Z,15
2017-12-21T14:18:55.604Z,15
2017-12-21T14:19:55.587Z,15
2017-12-21T14:20:55.598Z,15
2017-12-21T14:21:55.871Z,15
2017-12-21T14:22:55.119Z,15
2017-12-21T14:39:29.640Z,10
2017-12-21T14:40:29.638Z,5